Time;durP1;ratioP1;P1;durP2;ratioP2;P2;SDS_P1;SDS_P2;PMS_P1;PMS_P2;Temp;Humidity;BMP_temperature;BMP_pressure;BME280_temperature;BME280_humidity;BME280_pressure;Samples;Min_cycle;Max_cycle;Signal;HPM_P1;HPM_P2
2022/11/19 00:00:20;;;;;;;9.65;6.70;;;3.60;5.40;;;;;;5032035;28;20106;-62
2022/11/19 00:02:46;;;;;;;8.65;6.82;;;3.50;1.00;;;;;;5033076;28;20037;-62
2022/11/19 00:05:11;;;;;;;8.30;6.75;;;4.00;1.00;;;;;;5033753;28;20127;-62
2022/11/19 00:07:37;;;;;;;6.85;5.35;;;3.50;1.00;;;;;;5032771;28;20099;-62
2022/11/19 00:10:03;;;;;;;7.13;6.18;;;3.50;1.00;;;;;;5031826;28;20033;-62
2022/11/19 00:15:13;;;;;;;7.60;6.07;;;3.60;1.00;;;;;;5034201;28;20069;-62
2022/11/19 00:17:38;;;;;;;8.50;6.65;;;3.60;1.00;;;;;;5032861;28;20073;-62
2022/11/19 00:20:04;;;;;;;11.65;6.57;;;3.60;1.00;;;;;;5049166;28;20048;-62
2022/11/19 00:22:30;;;;;;;7.13;5.65;;;3.60;1.00;;;;;;5033654;28;20053;-62
2022/11/19 00:24:55;;;;;;;8.05;5.78;;;3.50;1.00;;;;;;5031584;28;20485;-62
2022/11/19 00:27:21;;;;;;;9.45;6.10;;;3.40;1.00;;;;;;5033007;28;20033;-62
2022/11/19 00:29:46;;;;;;;6.63;5.38;;;3.60;1.00;;;;;;5032113;28;20065;-62
2022/11/19 00:32:12;;;;;;;6.80;5.38;;;3.70;1.00;;;;;;5031665;28;20037;-62
2022/11/19 00:34:38;;;;;;;7.10;5.35;;;3.60;1.00;;;;;;5032994;28;20037;-62
2022/11/19 00:37:03;;;;;;;7.03;4.82;;;3.60;99.90;;;;;;5033904;28;20041;-62
2022/11/19 00:39:29;;;;;;;5.93;4.78;;;3.70;99.90;;;;;;5033164;28;20041;-62
2022/11/19 00:41:54;;;;;;;6.10;5.47;;;3.60;99.90;;;;;;5033707;28;20037;-62
2022/11/19 00:44:20;;;;;;;5.55;4.85;;;3.60;99.90;;;;;;5033510;28;20175;-62
2022/11/19 00:46:45;;;;;;;6.95;4.68;;;3.60;99.90;;;;;;5032494;28;20056;-62
2022/11/19 00:49:11;;;;;;;6.95;4.70;;;3.50;99.90;;;;;;5031014;28;20479;-62
2022/11/19 00:51:36;;;;;;;5.95;4.53;;;3.60;99.90;;;;;;5033483;28;20542;-62
2022/11/19 00:54:02;;;;;;;5.70;4.45;;;3.60;99.90;;;;;;5032695;28;20033;-62
2022/11/19 00:56:27;;;;;;;5.25;4.50;;;3.60;99.90;;;;;;5033211;28;20052;-62
2022/11/19 00:58:54;;;;;;;6.28;3.88;;;3.60;99.90;;;;;;5033222;28;20045;-62
2022/11/19 01:01:22;;;;;;;5.00;3.42;;;3.60;99.90;;;;;;5031716;28;20048;-62
2022/11/19 01:03:48;;;;;;;7.55;3.80;;;3.40;99.90;;;;;;5032090;28;20056;-62
2022/11/19 01:06:16;;;;;;;5.10;4.10;;;3.50;99.90;;;;;;5031893;28;20037;-62
2022/11/19 01:08:42;;;;;;;6.80;4.28;;;3.40;99.90;;;;;;5031701;28;20372;-62
2022/11/19 01:11:13;;;;;;;6.07;4.20;;;3.50;99.90;;;;;;5030554;28;20103;-62
2022/11/19 01:13:39;;;;;;;5.10;3.78;;;3.60;99.90;;;;;;5031595;28;20142;-62
2022/11/19 01:16:09;;;;;;;6.25;4.00;;;3.60;99.90;;;;;;5031166;28;20045;-62
2022/11/19 01:18:36;;;;;;;5.30;3.70;;;3.70;99.90;;;;;;5032850;28;20037;-62
2022/11/19 01:21:04;;;;;;;6.70;3.83;;;3.80;99.90;;;;;;5033060;28;20491;-62
2022/11/19 01:23:29;;;;;;;3.95;3.47;;;3.80;99.90;;;;;;5031649;28;20483;-62
2022/11/19 01:25:55;;;;;;;5.05;4.10;;;3.70;99.90;;;;;;5032873;28;20041;-62
2022/11/19 01:28:21;;;;;;;5.25;3.97;;;3.80;99.90;;;;;;5031981;28;20090;-62
2022/11/19 01:30:46;;;;;;;4.88;3.38;;;3.70;99.90;;;;;;5032214;28;20049;-62
2022/11/19 01:33:12;;;;;;;4.95;3.35;;;3.70;99.90;;;;;;5031705;28;20186;-62
2022/11/19 01:35:38;;;;;;;4.88;3.80;;;3.70;99.90;;;;;;5032526;28;20167;-62
2022/11/19 01:38:04;;;;;;;5.18;3.95;;;3.70;99.90;;;;;;5032519;28;20479;-62
2022/11/19 01:40:30;;;;;;;6.88;4.28;;;3.60;99.90;;;;;;5015887;28;20050;-62
2022/11/19 01:42:56;;;;;;;3.45;2.95;;;3.50;99.90;;;;;;5013570;28;20052;-62
2022/11/19 01:45:47;;;;;;;5.38;4.20;;;3.50;99.90;;;;;;5032313;28;20037;-62
2022/11/19 01:48:26;;;;;;;5.63;3.78;;;3.40;99.90;;;;;;5031513;28;20095;-62
2022/11/19 01:50:57;;;;;;;4.25;3.42;;;3.50;99.90;;;;;;5032377;28;20093;-62
2022/11/19 01:53:33;;;;;;;5.03;3.53;;;3.50;99.90;;;;;;5030421;28;20616;-62
2022/11/19 01:56:02;;;;;;;4.32;3.65;;;3.50;99.90;;;;;;5029243;28;20180;-62
2022/11/19 01:58:35;;;;;;;7.07;4.18;;;3.50;99.90;;;;;;5029504;28;20079;-62
2022/11/19 02:01:00;;;;;;;3.88;3.20;;;3.40;99.90;;;;;;5030594;28;20049;-62
2022/11/19 02:03:29;;;;;;;4.35;3.58;;;3.30;98.60;;;;;;5031573;28;20038;-62
2022/11/19 02:05:54;;;;;;;4.22;3.83;;;3.30;94.70;;;;;;5031750;28;20586;-62
2022/11/19 02:08:45;;;;;;;4.72;3.42;;;3.20;86.80;;;;;;5030993;28;20124;-62
2022/11/19 02:11:42;;;;;;;4.97;3.90;;;3.40;91.80;;;;;;5031894;28;20449;-62
2022/11/19 02:14:43;;;;;;;4.97;3.92;;;3.40;92.00;;;;;;5031824;28;20096;-62
2022/11/19 02:17:14;;;;;;;4.20;3.30;;;3.40;91.60;;;;;;5031552;28;20466;-62
2022/11/19 02:20:14;;;;;;;4.80;3.90;;;3.30;80.50;;;;;;5029640;28;20132;-62
2022/11/19 02:23:02;;;;;;;6.18;4.13;;;3.10;73.50;;;;;;5031829;28;20495;-62
2022/11/19 02:25:30;;;;;;;;;;;3.10;73.90;;;;;;5032248;28;20525;-62
2022/11/19 02:28:14;;;;;;;5.88;3.85;;;3.10;65.70;;;;;;5031081;28;20403;-62
2022/11/19 02:30:48;;;;;;;5.28;4.40;;;3.10;68.10;;;;;;5029474;28;20042;-62
2022/11/19 02:33:28;;;;;;;5.68;4.50;;;3.10;68.50;;;;;;5030386;28;20064;-62
2022/11/19 02:36:21;;;;;;;6.97;4.45;;;3.00;69.00;;;;;;5029918;28;20068;-62
2022/11/19 02:38:59;;;;;;;7.10;4.50;;;2.90;70.50;;;;;;5031002;28;20049;-62
2022/11/19 02:41:42;;;;;;;6.53;4.55;;;2.80;71.60;;;;;;5031480;28;20045;-62
2022/11/19 02:47:10;;;;;;;7.85;4.65;;;2.70;71.60;;;;;;5017879;28;20085;-62
2022/11/19 02:49:41;;;;;;;6.47;4.97;;;2.70;72.60;;;;;;5028830;28;20046;-62
2022/11/19 02:52:07;;;;;;;5.63;4.40;;;2.70;73.10;;;;;;5011728;28;20100;-62
2022/11/19 02:54:33;;;;;;;8.38;4.85;;;2.70;70.00;;;;;;5011739;28;20034;-62
2022/11/19 02:56:59;;;;;;;4.80;4.28;;;2.60;74.80;;;;;;5025469;28;20034;-62
2022/11/19 03:05:09;;;;;;;4.82;4.07;;;2.60;70.90;;;;;;5030997;28;20119;-62
2022/11/19 03:07:34;;;;;;;5.90;4.57;;;2.60;74.50;;;;;;5030522;28;20502;-62
2022/11/19 03:10:05;;;;;;;5.30;4.50;;;2.60;77.00;;;;;;5029069;28;20121;-61
2022/11/19 03:12:54;;;;;;;6.40;5.30;;;2.70;69.60;;;;;;5030985;28;20065;-62
2022/11/19 03:18:50;;;;;;;5.22;4.47;;;2.60;62.20;;;;;;5011425;28;20120;-62
2022/11/19 03:21:26;;;;;;;7.18;5.38;;;2.50;58.20;;;;;;5027694;28;20049;-63
2022/11/19 03:23:57;;;;;;;6.95;5.10;;;2.60;58.80;;;;;;5031197;28;20525;-62
2022/11/19 03:26:32;;;;;;;6.45;5.20;;;2.50;56.90;;;;;;5030137;28;20056;-62
2022/11/19 03:29:02;;;;;;;6.28;4.80;;;2.80;61.40;;;;;;5029726;28;20052;-62
2022/11/19 03:31:31;;;;;;;6.97;4.82;;;2.50;60.80;;;;;;5028980;28;20042;-62
2022/11/19 03:34:00;;;;;;;5.82;4.70;;;2.40;60.00;;;;;;5025003;28;20081;-62
2022/11/19 03:36:30;;;;;;;8.15;5.32;;;2.40;59.80;;;;;;5011462;28;20042;-62
2022/11/19 03:39:01;;;;;;;5.68;5.07;;;2.80;58.20;;;;;;5029848;28;20281;-62
2022/11/19 03:41:28;;;;;;;6.72;5.43;;;2.30;60.70;;;;;;5032990;28;20048;-62
2022/11/19 03:44:10;;;;;;;8.52;5.70;;;2.80;67.20;;;;;;5033372;28;20041;-62
2022/11/19 03:46:37;;;;;;;8.32;5.70;;;2.20;69.80;;;;;;5034623;28;20045;-62
2022/11/19 03:49:06;;;;;;;6.50;5.55;;;2.60;74.40;;;;;;5034298;28;20048;-62
2022/11/19 03:51:40;;;;;;;6.72;5.93;;;2.10;77.10;;;;;;5032526;28;20034;-62
2022/11/19 03:54:06;;;;;;;7.97;5.70;;;2.10;79.60;;;;;;5034720;28;20053;-62
2022/11/19 03:56:36;;;;;;;6.68;5.72;;;2.00;78.80;;;;;;5032434;28;20402;-62
2022/11/19 03:59:03;;;;;;;7.43;5.90;;;1.90;82.60;;;;;;5034251;28;20482;-62
2022/11/19 04:01:29;;;;;;;9.07;6.75;;;1.90;87.20;;;;;;5031925;28;20041;-62
2022/11/19 04:06:39;;;;;;;11.73;5.63;;;1.90;90.20;;;;;;5033637;28;20136;-62
2022/11/19 04:09:04;;;;;;;7.25;5.90;;;1.90;92.40;;;;;;5032670;28;20116;-62
2022/11/19 04:11:30;;;;;;;7.85;6.22;;;1.90;92.00;;;;;;5032010;28;20067;-62
2022/11/19 04:13:55;;;;;;;8.48;6.50;;;1.80;91.50;;;;;;5033875;28;20037;-62
2022/11/19 04:16:21;;;;;;;9.57;6.40;;;1.80;92.50;;;;;;5034196;28;20041;-62
2022/11/19 04:18:46;;;;;;;7.78;6.13;;;1.80;93.90;;;;;;5034020;28;20527;-62
2022/11/19 04:21:12;;;;;;;7.95;6.00;;;1.80;93.40;;;;;;5031978;28;20095;-62
2022/11/19 04:23:38;;;;;;;8.45;5.88;;;1.70;92.40;;;;;;5033856;28;20077;-62
2022/11/19 04:26:03;;;;;;;7.25;5.63;;;1.70;93.00;;;;;;5033636;28;20060;-62
2022/11/19 04:28:29;;;;;;;8.45;6.53;;;1.70;91.80;;;;;;5031866;28;20042;-62
2022/11/19 04:30:54;;;;;;;8.00;5.90;;;1.70;92.50;;;;;;5033988;28;20041;-62
2022/11/19 04:33:20;;;;;;;7.25;5.68;;;1.70;91.90;;;;;;5033773;28;20481;-62
2022/11/19 04:35:45;;;;;;;6.75;5.57;;;1.60;91.60;;;;;;5033573;28;20033;-62
2022/11/19 04:38:11;;;;;;;7.68;6.10;;;1.70;91.30;;;;;;5031808;28;20095;-62
2022/11/19 04:40:38;;;;;;;7.88;6.18;;;1.60;92.40;;;;;;5033401;28;20048;-62
2022/11/19 04:43:03;;;;;;;8.35;6.45;;;1.60;91.30;;;;;;5033374;28;20042;-62
2022/11/19 04:45:29;;;;;;;9.18;5.60;;;1.60;90.70;;;;;;5033806;28;20033;-62
2022/11/19 04:47:54;;;;;;;9.30;6.30;;;1.60;91.90;;;;;;5033417;28;20038;-62
2022/11/19 04:50:20;;;;;;;8.63;6.28;;;1.60;92.10;;;;;;5031689;28;20044;-62
2022/11/19 04:52:45;;;;;;;8.50;6.97;;;1.50;91.80;;;;;;5033641;28;20171;-62
2022/11/19 04:55:11;;;;;;;9.57;6.68;;;1.50;92.20;;;;;;5032428;28;20084;-62
2022/11/19 04:57:37;;;;;;;8.30;6.70;;;1.50;93.30;;;;;;5031425;28;20353;-62
2022/11/19 05:00:03;;;;;;;10.13;6.07;;;1.30;91.80;;;;;;5032473;28;20049;-62
2022/11/19 05:02:28;;;;;;;7.80;6.40;;;1.40;91.60;;;;;;5033320;28;20041;-62
2022/11/19 05:04:54;;;;;;;7.03;5.95;;;1.40;92.90;;;;;;5032924;28;20096;-62
2022/11/19 05:07:19;;;;;;;8.38;6.13;;;1.40;91.60;;;;;;5033227;28;20037;-62
2022/11/19 05:09:45;;;;;;;10.13;6.18;;;1.40;91.00;;;;;;5031037;28;20049;-62
2022/11/19 05:12:10;;;;;;;7.47;5.90;;;1.40;91.10;;;;;;5031447;28;20499;-62
2022/11/19 05:14:37;;;;;;;11.52;5.95;;;1.40;92.30;;;;;;5025460;28;20057;-62
2022/11/19 05:17:03;;;;;;;7.50;6.15;;;1.40;92.00;;;;;;5013402;28;20117;-62
2022/11/19 05:19:29;;;;;;;8.18;5.95;;;1.40;90.20;;;;;;5024897;28;20071;-62
2022/11/19 05:21:54;;;;;;;11.98;6.15;;;1.40;89.70;;;;;;5031653;28;20041;-62
2022/11/19 05:24:20;;;;;;;9.20;5.93;;;1.30;89.40;;;;;;5030576;28;20033;-62
2022/11/19 05:26:45;;;;;;;9.50;5.97;;;1.40;90.30;;;;;;5030713;28;20080;-62
2022/11/19 05:29:11;;;;;;;10.50;6.43;;;1.30;90.20;;;;;;5031146;28;20084;-62
2022/11/19 05:31:36;;;;;;;8.43;5.90;;;1.30;90.70;;;;;;5032625;28;20044;-61
2022/11/19 05:34:02;;;;;;;7.18;5.82;;;1.80;90.80;;;;;;5031731;28;20025;-62
2022/11/19 05:36:28;;;;;;;7.85;5.97;;;1.30;90.30;;;;;;5030205;28;20037;-62
2022/11/19 05:38:53;;;;;;;8.57;6.25;;;1.20;88.50;;;;;;5028791;28;20037;-62
2022/11/19 05:41:19;;;;;;;7.35;5.70;;;1.30;90.20;;;;;;5011536;28;20487;-62
2022/11/19 05:43:44;;;;;;;7.25;5.60;;;1.30;90.20;;;;;;5012492;28;20049;-62
2022/11/19 05:46:10;;;;;;;7.18;5.70;;;1.20;87.70;;;;;;5014680;28;20044;-62
2022/11/19 05:48:35;;;;;;;7.63;6.28;;;1.30;87.80;;;;;;5032345;28;20045;-62
2022/11/19 05:51:01;;;;;;;7.95;5.45;;;1.30;88.10;;;;;;5032073;28;20047;-62
2022/11/19 05:53:26;;;;;;;7.28;5.72;;;1.30;89.30;;;;;;5032294;28;20647;-62
2022/11/19 05:55:52;;;;;;;6.60;5.45;;;1.80;85.50;;;;;;5027533;28;20041;-62
2022/11/19 05:58:18;;;;;;;7.47;5.97;;;1.30;79.80;;;;;;5028312;28;20091;-62
2022/11/19 06:00:43;;;;;;;7.35;5.55;;;1.30;82.70;;;;;;5032344;28;20073;-62
2022/11/19 06:03:09;;;;;;;7.13;5.72;;;1.30;76.10;;;;;;5031999;28;20046;-62
2022/11/19 06:05:35;;;;;;;7.03;5.50;;;1.70;77.50;;;;;;5031941;28;20037;-62
2022/11/19 06:08:00;;;;;;;7.50;5.70;;;1.30;72.70;;;;;;5029631;28;20103;-62
2022/11/19 06:10:26;;;;;;;7.38;5.43;;;1.30;69.90;;;;;;5031992;28;20045;-62
2022/11/19 06:12:52;;;;;;;7.70;5.85;;;1.30;70.50;;;;;;5031640;28;20045;-62
2022/11/19 06:15:17;;;;;;;8.98;6.10;;;1.30;68.60;;;;;;5032196;28;20041;-62
2022/11/19 06:17:43;;;;;;;7.50;5.65;;;1.20;65.60;;;;;;5031820;28;20034;-62
2022/11/19 06:20:09;;;;;;;9.63;5.85;;;1.20;69.30;;;;;;5029738;28;20037;-62
2022/11/19 06:22:36;;;;;;;6.68;5.45;;;1.30;66.00;;;;;;5031924;28;20052;-62
2022/11/19 06:25:06;;;;;;;7.57;6.00;;;1.20;68.00;;;;;;5029403;28;20112;-62
2022/11/19 06:27:33;;;;;;;6.90;5.57;;;1.10;64.70;;;;;;5029492;28;20061;-62
2022/11/19 06:29:59;;;;;;;7.10;5.57;;;1.10;61.20;;;;;;5027663;28;20046;-62
2022/11/19 06:32:24;;;;;;;7.82;5.97;;;1.20;59.90;;;;;;5011947;28;20037;-62
2022/11/19 06:34:50;;;;;;;8.07;5.70;;;1.20;62.40;;;;;;5020247;28;20045;-62
2022/11/19 06:37:15;;;;;;;8.27;5.55;;;1.20;60.40;;;;;;5030419;28;20025;-62
2022/11/19 06:39:41;;;;;;;5.47;4.82;;;1.20;58.30;;;;;;5031219;28;20072;-62
2022/11/19 06:44:51;;;;;;;6.57;5.45;;;1.30;55.30;;;;;;5030792;28;20052;-62
2022/11/19 06:47:17;;;;;;;8.02;5.40;;;1.20;51.40;;;;;;5025122;28;20502;-62
2022/11/19 06:49:42;;;;;;;6.70;5.28;;;1.20;48.80;;;;;;5010791;28;20092;-62
2022/11/19 06:52:08;;;;;;;11.05;5.63;;;1.60;47.20;;;;;;5011786;28;20125;-62
2022/11/19 06:54:33;;;;;;;7.20;5.57;;;1.20;48.60;;;;;;5011728;28;20030;-62
2022/11/19 06:56:59;;;;;;;6.68;5.43;;;1.30;56.10;;;;;;5022229;28;20037;-62
2022/11/19 06:59:25;;;;;;;8.77;5.25;;;1.20;48.80;;;;;;5031063;28;20491;-62
2022/11/19 07:01:50;;;;;;;7.68;5.80;;;1.10;45.00;;;;;;5031337;28;20087;-62
2022/11/19 07:04:16;;;;;;;7.80;5.80;;;1.10;43.10;;;;;;5030280;28;20045;-62
2022/11/19 07:06:42;;;;;;;6.90;5.10;;;1.10;43.00;;;;;;5027634;28;20047;-62
2022/11/19 07:09:07;;;;;;;7.05;5.20;;;1.10;44.00;;;;;;5031115;28;20059;-62
2022/11/19 07:11:34;;;;;;;6.80;5.20;;;1.10;44.80;;;;;;5030837;28;20068;-62
2022/11/19 07:14:02;;;;;;;7.43;5.60;;;1.00;44.80;;;;;;5034439;28;20614;-62
2022/11/19 07:16:30;;;;;;;6.07;4.85;;;1.00;42.60;;;;;;5035087;28;20376;-62
2022/11/19 07:18:58;;;;;;;8.30;5.68;;;1.00;41.30;;;;;;5033057;28;20045;-62
2022/11/19 07:21:24;;;;;;;9.27;6.45;;;1.00;38.60;;;;;;5034892;28;20064;-62
2022/11/19 07:23:49;;;;;;;6.53;5.00;;;1.00;36.90;;;;;;5033614;28;20026;-62
2022/11/19 07:26:15;;;;;;;6.93;5.45;;;1.00;34.60;;;;;;5034987;28;20463;-62
2022/11/19 07:28:41;;;;;;;6.68;5.45;;;0.90;28.10;;;;;;5033999;28;20113;-62
2022/11/19 07:31:07;;;;;;;6.07;5.05;;;0.90;26.70;;;;;;5035247;28;20429;-62
2022/11/19 07:33:34;;;;;;;8.55;6.03;;;1.00;30.00;;;;;;5032863;28;20069;-62
2022/11/19 07:36:01;;;;;;;7.47;5.68;;;1.10;34.00;;;;;;5034193;28;20356;-62
2022/11/19 07:38:27;;;;;;;7.90;5.53;;;1.20;34.90;;;;;;5034649;28;20723;-62
2022/11/19 07:40:53;;;;;;;7.68;5.53;;;1.30;31.30;;;;;;5034640;28;20133;-62
2022/11/19 07:43:19;;;;;;;6.53;4.70;;;1.30;28.70;;;;;;5034151;28;20041;-62
2022/11/19 07:45:45;;;;;;;7.63;5.95;;;1.30;27.30;;;;;;5034786;28;20041;-62
2022/11/19 07:48:11;;;;;;;6.57;4.78;;;1.30;27.80;;;;;;5049581;28;20041;-62
2022/11/19 07:50:36;;;;;;;7.10;5.50;;;1.30;25.50;;;;;;5033867;28;20040;-62
2022/11/19 07:53:02;;;;;;;6.15;5.15;;;1.40;29.00;;;;;;5028772;28;20096;-62
2022/11/19 07:55:27;;;;;;;7.68;5.35;;;1.60;32.10;;;;;;5028845;28;20610;-62
2022/11/19 07:57:53;;;;;;;6.63;4.88;;;1.60;28.20;;;;;;5026340;28;20038;-62
2022/11/19 08:00:19;;;;;;;7.47;5.40;;;1.60;20.00;;;;;;5023310;28;20116;-62
2022/11/19 08:02:44;;;;;;;5.93;4.75;;;1.60;23.30;;;;;;5026773;28;20029;-62
2022/11/19 08:05:10;;;;;;;7.53;5.32;;;1.70;20.70;;;;;;5024664;28;20037;-62
2022/11/19 08:07:36;;;;;;;6.50;5.05;;;1.70;13.80;;;;;;5031604;28;20448;-62
2022/11/19 08:10:05;;;;;;;6.68;5.20;;;1.70;16.90;;;;;;5027345;28;20121;-62
2022/11/19 08:12:31;;;;;;;6.32;4.40;;;1.70;16.50;;;;;;5021868;28;21201;-63
2022/11/19 08:14:57;;;;;;;7.25;5.03;;;1.70;13.30;;;;;;5031763;28;20041;-62
2022/11/19 08:20:08;;;;;;;6.57;5.25;;;1.80;8.30;;;;;;5032552;28;20143;-63
2022/11/19 08:22:35;;;;;;;7.18;4.55;;;1.90;17.30;;;;;;5027578;28;20045;-63
2022/11/19 08:25:02;;;;;;;8.13;4.82;;;2.10;7.80;;;;;;5022396;28;20097;-63
2022/11/19 08:27:28;;;;;;;6.28;4.70;;;2.70;8.20;;;;;;5028747;28;20701;-63
2022/11/19 08:29:54;;;;;;;6.13;4.43;;;2.10;1.00;;;;;;5029973;28;20100;-62
2022/11/19 08:32:19;;;;;;;14.70;5.63;;;2.10;1.00;;;;;;5033245;28;20057;-62
2022/11/19 08:34:45;;;;;;;7.85;4.65;;;2.30;2.90;;;;;;5032638;28;20084;-62
2022/11/19 08:37:12;;;;;;;6.22;4.80;;;2.30;1.00;;;;;;5033395;28;20156;-62
2022/11/19 08:39:41;;;;;;;5.78;4.22;;;2.40;1.00;;;;;;5028132;28;20064;-62
2022/11/19 08:44:53;;;;;;;7.53;3.90;;;2.10;1.00;;;;;;5020782;28;20041;-62
2022/11/19 08:47:19;;;;;;;6.07;4.43;;;2.00;1.00;;;;;;5033522;28;20522;-62
2022/11/19 08:49:45;;;;;;;7.22;4.45;;;2.20;1.00;;;;;;5029700;28;20053;-62
2022/11/19 08:52:10;;;;;;;8.68;4.95;;;2.30;1.00;;;;;;5031905;28;20049;-62
2022/11/19 08:54:36;;;;;;;6.60;5.00;;;2.40;1.00;;;;;;5032773;28;20037;-62
2022/11/19 08:57:01;;;;;;;6.30;4.60;;;2.60;1.00;;;;;;5030529;28;20167;-62
2022/11/19 08:59:27;;;;;;;5.70;4.68;;;2.50;1.00;;;;;;5032659;28;20045;-63
2022/11/19 09:01:52;;;;;;;6.28;4.45;;;2.50;1.00;;;;;;5030383;28;20087;-62
2022/11/19 09:04:18;;;;;;;5.32;4.00;;;2.40;1.00;;;;;;5030064;28;20037;-66
2022/11/19 09:06:44;;;;;;;6.88;4.80;;;2.50;1.00;;;;;;5031582;28;20041;-78
2022/11/19 09:09:09;;;;;;;5.88;4.50;;;2.80;1.00;;;;;;5031785;28;20432;-64
2022/11/19 09:11:35;;;;;;;5.22;3.70;;;2.70;1.00;;;;;;5026843;28;20519;-64
2022/11/19 09:14:00;;;;;;;7.43;4.63;;;2.70;1.00;;;;;;5025107;28;20119;-64
2022/11/19 09:16:26;;;;;;;7.18;5.40;;;2.80;1.00;;;;;;5021186;28;20376;-64
2022/11/19 09:18:52;;;;;;;5.20;3.85;;;2.90;1.00;;;;;;5031504;28;20065;-64
2022/11/19 09:21:18;;;;;;;4.93;4.03;;;3.00;1.00;;;;;;5030711;28;20056;-64
2022/11/19 09:23:43;;;;;;;6.10;4.93;;;3.10;1.00;;;;;;5030897;28;20029;-64
2022/11/19 09:26:15;;;;;;;6.20;5.10;;;3.20;1.00;;;;;;5031260;28;20038;-64
2022/11/19 09:28:41;;;;;;;5.82;4.68;;;3.50;1.00;;;;;;5029762;28;20128;-64
2022/11/19 09:31:18;;;;;;;8.85;4.72;;;3.10;1.00;;;;;;5021298;28;20045;-64
2022/11/19 09:33:48;;;;;;;5.82;4.78;;;3.10;1.00;;;;;;5031632;28;20573;-64
2022/11/19 09:36:14;;;;;;;6.72;5.30;;;2.90;1.00;;;;;;5026436;28;20503;-64
2022/11/19 09:38:40;;;;;;;6.57;4.90;;;3.00;1.00;;;;;;5022418;28;20029;-64
2022/11/19 09:41:20;;;;;;;7.68;4.90;;;2.90;1.00;;;;;;5025627;28;20528;-64
2022/11/19 09:44:12;;;;;;;6.93;5.57;;;2.90;1.00;;;;;;5029991;28;20045;-64
2022/11/19 09:46:40;;;;;;;5.72;4.75;;;3.10;1.00;;;;;;5029600;28;20038;-64
2022/11/19 09:49:32;;;;;;;9.70;5.47;;;3.30;1.00;;;;;;5028055;28;20049;-65
2022/11/19 09:52:05;;;;;;;7.10;4.93;;;3.30;1.00;;;;;;5025610;28;20133;-64
2022/11/19 09:54:31;;;;;;;7.55;4.70;;;3.30;1.00;;;;;;5029340;28;20038;-64
2022/11/19 09:57:01;;;;;;;4.90;3.92;;;3.30;1.00;;;;;;5032046;28;20042;-64
2022/11/19 09:59:35;;;;;;;6.72;5.53;;;3.30;1.00;;;;;;5025834;28;20112;-65
2022/11/19 10:02:02;;;;;;;7.03;5.60;;;3.30;1.00;;;;;;5023310;28;20029;-64
2022/11/19 10:04:30;;;;;;;6.38;5.28;;;3.30;1.00;;;;;;5008934;28;20060;-62
2022/11/19 10:07:07;;;;;;;6.60;4.93;;;3.40;1.00;;;;;;5029833;28;20033;-63
2022/11/19 10:09:46;;;;;;;7.00;5.10;;;3.40;1.00;;;;;;5031592;28;20123;-63
2022/11/19 10:12:39;;;;;;;6.30;5.47;;;3.30;1.00;;;;;;5030634;28;20046;-63
2022/11/19 10:15:14;;;;;;;6.38;5.05;;;3.20;1.00;;;;;;5032377;28;20095;-63
2022/11/19 10:17:39;;;;;;;6.70;5.10;;;3.40;1.00;;;;;;5029582;28;20037;-63
2022/11/19 10:20:13;;;;;;;6.80;5.03;;;3.60;1.00;;;;;;5031968;28;20048;-63
2022/11/19 10:22:53;;;;;;;8.30;5.45;;;3.70;1.00;;;;;;5028147;28;20049;-63
2022/11/19 10:25:26;;;;;;;6.60;5.43;;;3.70;1.00;;;;;;5029703;28;20113;-63
2022/11/19 10:27:56;;;;;;;8.27;5.45;;;3.80;1.00;;;;;;5019090;28;20033;-63
2022/11/19 10:30:24;;;;;;;6.28;4.97;;;3.90;1.00;;;;;;5029800;28;20050;-63
2022/11/19 10:32:59;;;;;;;6.60;4.80;;;3.90;1.00;;;;;;5028005;28;20045;-63
2022/11/19 10:35:34;;;;;;;8.03;5.13;;;4.00;1.00;;;;;;5029024;28;20036;-63
2022/11/19 10:38:15;;;;;;;7.50;5.28;;;4.00;1.00;;;;;;5025902;28;20041;-63
2022/11/19 10:40:45;;;;;;;6.95;5.50;;;4.00;1.00;;;;;;5026140;28;20034;-63
2022/11/19 10:43:22;;;;;;;5.97;4.10;;;4.20;1.00;;;;;;5027012;28;20522;-63
2022/11/19 10:45:48;;;;;;;6.90;5.32;;;4.30;1.00;;;;;;5029245;28;20056;-64
2022/11/19 10:48:22;;;;;;;6.00;4.65;;;4.30;1.00;;;;;;5028022;28;20120;-63
2022/11/19 10:50:49;;;;;;;6.80;4.30;;;4.00;1.00;;;;;;5029907;28;20045;-63
2022/11/19 10:53:30;;;;;;;6.00;4.07;;;4.00;1.00;;;;;;5030094;28;20033;-63
2022/11/19 10:56:20;;;;;;;7.35;4.47;;;3.90;1.00;;;;;;5031352;28;20033;-63
2022/11/19 10:59:04;;;;;;;6.57;5.32;;;4.00;1.00;;;;;;5016636;28;20069;-63
2022/11/19 11:01:38;;;;;;;6.72;4.20;;;4.30;1.00;;;;;;5031275;28;20095;-63
2022/11/19 11:04:17;;;;;;;6.32;3.63;;;4.30;1.00;;;;;;5028992;28;20033;-63
2022/11/19 11:06:55;;;;;;;6.72;4.47;;;4.30;1.00;;;;;;5031718;28;20484;-63
2022/11/19 11:09:27;;;;;;;5.60;4.22;;;4.20;1.00;;;;;;5029751;28;20482;-63
2022/11/19 11:14:50;;;;;;;5.75;3.88;;;4.10;1.00;;;;;;5028779;28;20124;-63
2022/11/19 11:17:19;;;;;;;6.78;4.25;;;4.00;1.00;;;;;;5031429;28;20132;-63
2022/11/19 11:19:55;;;;;;;6.45;4.70;;;4.00;1.00;;;;;;5028082;28;20049;-63
2022/11/19 11:22:21;;;;;;;;;;;4.30;1.00;;;;;;5031576;28;20403;-63
2022/11/19 11:24:47;;;;;;;6.05;4.55;;;4.10;1.00;;;;;;5030392;28;20382;-63
2022/11/19 11:27:29;;;;;;;6.13;3.92;;;4.20;1.00;;;;;;5031368;28;20043;-62
2022/11/19 11:30:10;;;;;;;4.93;3.35;;;4.20;1.00;;;;;;5013752;28;20049;-62
2022/11/19 11:32:37;;;;;;;6.18;3.60;;;4.30;1.00;;;;;;5027243;28;20038;-62
2022/11/19 11:35:05;;;;;;;5.15;3.50;;;4.30;1.00;;;;;;5029766;28;20048;-61
2022/11/19 11:37:31;;;;;;;6.43;4.88;;;4.30;1.00;;;;;;5031058;28;20040;-62
2022/11/19 11:39:58;;;;;;;5.07;3.97;;;4.20;1.00;;;;;;5021335;28;20033;-63
2022/11/19 11:42:27;;;;;;;8.75;4.65;;;4.10;1.00;;;;;;5028132;28;20038;-63
2022/11/19 11:44:54;;;;;;;7.15;4.68;;;4.10;1.00;;;;;;5028620;28;20052;-63
2022/11/19 11:47:30;;;;;;;5.65;4.20;;;4.10;1.00;;;;;;5028956;28;20037;-63
2022/11/19 11:50:18;;;;;;;5.85;4.57;;;4.20;1.00;;;;;;5028362;28;20049;-62
2022/11/19 11:52:47;;;;;;;7.10;4.75;;;4.30;1.00;;;;;;5025944;28;20139;-63
2022/11/19 11:55:30;;;;;;;6.18;4.20;;;4.30;1.00;;;;;;5030604;28;20034;-62
2022/11/19 11:58:04;;;;;;;5.60;4.18;;;4.40;1.00;;;;;;5029310;28;20133;-62
2022/11/19 12:00:35;;;;;;;6.70;4.50;;;4.40;1.00;;;;;;5031677;28;20368;-63
2022/11/19 12:03:12;;;;;;;7.07;4.30;;;4.40;1.00;;;;;;5028531;28;20033;-62
2022/11/19 12:06:15;;;;;;;6.20;4.65;;;4.40;1.00;;;;;;5033185;28;20073;-63
2022/11/19 12:09:01;;;;;;;4.57;3.47;;;4.40;1.00;;;;;;5031381;28;20033;-63
2022/11/19 12:11:53;;;;;;;5.60;4.05;;;4.50;1.00;;;;;;5026866;28;20450;-63
2022/11/19 12:14:43;;;;;;;7.18;4.80;;;4.60;1.00;;;;;;5029590;28;20531;-63
2022/11/19 12:17:46;;;;;;;5.75;4.30;;;4.60;1.00;;;;;;5028894;28;20048;-63
2022/11/19 12:20:21;;;;;;;7.15;5.10;;;4.60;1.00;;;;;;5027505;28;20124;-63
2022/11/19 12:23:13;;;;;;;6.22;4.70;;;4.60;1.00;;;;;;5033677;28;20045;-63
2022/11/19 12:25:43;;;;;;;5.38;4.28;;;4.70;1.00;;;;;;5033471;28;20495;-63
2022/11/19 12:28:34;;;;;;;6.35;4.28;;;4.60;1.00;;;;;;5031908;28;20033;-63
2022/11/19 12:31:24;;;;;;;7.28;4.60;;;4.70;1.00;;;;;;5033858;28;20522;-63
2022/11/19 12:34:17;;;;;;;5.85;4.10;;;4.80;1.00;;;;;;5033280;28;20091;-63
2022/11/19 12:36:49;;;;;;;6.00;4.05;;;4.80;1.00;;;;;;5032777;28;20029;-63
2022/11/19 12:39:21;;;;;;;5.03;3.72;;;4.90;1.00;;;;;;5031210;28;20041;-63
2022/11/19 12:41:57;;;;;;;4.43;4.03;;;4.90;1.00;;;;;;5032618;28;20059;-63
2022/11/19 12:44:48;;;;;;;6.45;4.55;;;4.90;1.00;;;;;;5033136;28;20577;-63
2022/11/19 12:47:49;;;;;;;6.18;4.28;;;4.90;1.00;;;;;;5025247;28;20037;-63
2022/11/19 12:50:49;;;;;;;5.38;3.40;;;4.90;1.00;;;;;;5024466;28;20129;-63
2022/11/19 12:53:44;;;;;;;4.88;3.28;;;5.00;1.00;;;;;;5033252;28;20521;-63
2022/11/19 12:56:38;;;;;;;5.68;4.05;;;5.00;1.00;;;;;;5025758;28;20054;-63
2022/11/19 12:59:25;;;;;;;5.00;3.55;;;5.00;1.00;;;;;;5030746;28;20033;-63
2022/11/19 13:01:53;;;;;;;3.63;3.15;;;5.00;1.00;;;;;;5031428;28;20041;-61
2022/11/19 13:04:37;;;;;;;5.40;3.30;;;5.10;1.00;;;;;;5029310;28;20042;-63
2022/11/19 13:07:25;;;;;;;4.30;3.15;;;5.10;1.00;;;;;;5026990;28;20080;-63
2022/11/19 13:10:11;;;;;;;5.07;3.53;;;5.00;1.00;;;;;;5017911;28;20129;-64
2022/11/19 13:12:42;;;;;;;4.63;3.10;;;5.00;1.00;;;;;;5028595;28;20166;-63
2022/11/19 13:15:23;;;;;;;6.15;4.07;;;5.00;1.00;;;;;;5017964;28;20052;-63
2022/11/19 13:17:58;;;;;;;5.55;3.97;;;5.00;1.00;;;;;;5024147;28;20060;-63
2022/11/19 13:20:46;;;;;;;4.47;3.45;;;5.00;1.00;;;;;;5026195;28;20033;-63
2022/11/19 13:23:22;;;;;;;7.75;3.75;;;5.30;1.00;;;;;;5024210;28;20029;-63
2022/11/19 13:25:58;;;;;;;6.35;4.07;;;5.10;1.00;;;;;;5027628;28;20038;-63
2022/11/19 13:28:35;;;;;;;4.90;3.75;;;5.10;1.00;;;;;;5024297;28;20060;-63
2022/11/19 13:31:08;;;;;;;4.78;3.67;;;5.10;1.00;;;;;;5026042;28;20045;-63
2022/11/19 13:33:44;;;;;;;5.60;4.03;;;5.10;1.00;;;;;;5025092;28;20119;-63
2022/11/19 13:36:21;;;;;;;5.05;3.70;;;5.10;1.00;;;;;;5011972;28;20042;-63
2022/11/19 13:38:57;;;;;;;4.40;3.55;;;5.10;1.00;;;;;;5020162;28;20026;-63
2022/11/19 13:41:32;;;;;;;5.35;4.05;;;5.10;1.00;;;;;;5023621;28;20037;-63
2022/11/19 13:46:45;;;;;;;6.72;4.65;;;5.00;1.00;;;;;;5025185;28;20499;-63
2022/11/19 13:49:38;;;;;;;6.38;4.25;;;5.00;1.00;;;;;;5029794;28;20061;-62
2022/11/19 13:52:31;;;;;;;6.28;4.32;;;5.00;1.00;;;;;;5031295;28;20530;-63